createdAt,value
2023-04-21T00:01:17.845Z,16.75
2023-04-21T00:03:58.750Z,16.38
2023-04-21T00:06:39.871Z,15.63
2023-04-21T00:09:18.150Z,18.90
2023-04-21T00:11:52.995Z,20.45
2023-04-21T00:14:31.197Z,17.23
2023-04-21T00:17:10.509Z,17.33
2023-04-21T00:19:45.952Z,17.00
2023-04-21T00:22:33.016Z,15.63
2023-04-21T00:25:04.712Z,24.60
2023-04-21T00:27:45.381Z,18.23
2023-04-21T00:30:24.529Z,17.35
2023-04-21T00:33:00.718Z,16.30
2023-04-21T00:35:41.222Z,17.10
2023-04-21T00:38:17.090Z,18.08
2023-04-21T00:40:51.636Z,17.70
2023-04-21T00:43:34.040Z,17.73
2023-04-21T00:46:22.956Z,18.10
2023-04-21T00:49:08.558Z,18.65
2023-04-21T00:51:54.841Z,18.02
2023-04-21T00:54:36.654Z,17.02
2023-04-21T00:57:08.238Z,21.13
2023-04-21T00:59:39.726Z,20.95
2023-04-21T01:02:23.009Z,19.55
2023-04-21T01:05:04.314Z,20.05
2023-04-21T01:10:26.666Z,20.80
2023-04-21T01:13:04.746Z,19.80
2023-04-21T01:15:36.763Z,20.00
2023-04-21T01:18:13.176Z,19.02
2023-04-21T01:20:53.053Z,20.00
2023-04-21T01:23:31.680Z,20.13
2023-04-21T01:26:08.197Z,20.05
2023-04-21T01:28:42.690Z,21.05
2023-04-21T01:31:23.060Z,20.42
2023-04-21T01:33:59.159Z,20.55
2023-04-21T01:36:38.680Z,19.58
2023-04-21T01:39:25.486Z,20.88
2023-04-21T01:42:04.794Z,21.83
2023-04-21T01:44:39.325Z,21.35
2023-04-21T01:47:13.426Z,20.60
2023-04-21T01:49:51.842Z,21.63
2023-04-21T01:52:28.837Z,22.25
2023-04-21T01:55:07.104Z,21.67
2023-04-21T01:57:40.333Z,22.52
2023-04-21T02:00:16.095Z,21.30
2023-04-21T02:02:52.066Z,22.65
2023-04-21T02:05:27.665Z,22.88
2023-04-21T02:08:05.928Z,21.80
2023-04-21T02:10:41.258Z,22.98
2023-04-21T02:13:26.628Z,22.20
2023-04-21T02:16:10.046Z,21.58
2023-04-21T02:18:50.043Z,22.08
2023-04-21T02:21:27.308Z,23.27
2023-04-21T02:24:04.437Z,23.25
2023-04-21T02:26:47.571Z,23.95
2023-04-21T02:29:29.904Z,23.77
2023-04-21T02:32:14.250Z,21.83
2023-04-21T02:35:02.829Z,23.83
2023-04-21T02:37:39.382Z,23.55
2023-04-21T02:40:15.407Z,22.65
2023-04-21T02:42:55.660Z,23.08
2023-04-21T02:45:30.771Z,23.52
2023-04-21T02:48:05.785Z,23.80
2023-04-21T02:50:43.746Z,25.95
2023-04-21T02:53:32.843Z,24.40
2023-04-21T02:56:09.100Z,25.83
2023-04-21T02:58:51.682Z,27.13
2023-04-21T03:01:30.709Z,26.42
2023-04-21T03:04:07.465Z,25.77
2023-04-21T03:06:41.891Z,28.77
2023-04-21T03:09:24.801Z,31.02
2023-04-21T03:12:05.368Z,28.25
2023-04-21T03:14:53.539Z,27.13
2023-04-21T03:17:36.484Z,28.05
2023-04-21T03:20:14.433Z,27.95
2023-04-21T03:22:49.000Z,28.70
2023-04-21T03:25:30.456Z,29.38
2023-04-21T03:28:01.550Z,29.70
2023-04-21T03:30:46.731Z,28.42
2023-04-21T03:33:21.013Z,28.85
2023-04-21T03:36:01.478Z,28.90
2023-04-21T03:38:40.803Z,27.85
2023-04-21T03:41:16.097Z,28.27
2023-04-21T03:44:00.534Z,28.17
2023-04-21T03:46:44.319Z,27.10
2023-04-21T03:49:17.026Z,31.55
2023-04-21T03:52:11.227Z,39.22
2023-04-21T03:54:51.186Z,31.45
2023-04-21T03:57:30.045Z,33.90
2023-04-21T04:00:13.596Z,31.65
2023-04-21T04:02:54.523Z,31.40
2023-04-21T04:05:34.083Z,31.50
2023-04-21T04:08:14.451Z,30.80
2023-04-21T04:10:49.891Z,28.33
2023-04-21T04:13:29.707Z,28.45
2023-04-21T04:16:05.075Z,28.67
2023-04-21T04:18:52.037Z,27.60
2023-04-21T04:21:37.123Z,32.00
2023-04-21T04:24:12.903Z,30.35
2023-04-21T04:26:56.245Z,30.77
2023-04-21T04:29:28.222Z,30.63
2023-04-21T04:32:06.883Z,30.38
2023-04-21T04:34:44.592Z,32.58
2023-04-21T04:37:18.713Z,30.40
2023-04-21T04:39:53.668Z,30.35
2023-04-21T04:42:29.247Z,29.80
2023-04-21T04:45:08.838Z,30.70
2023-04-21T04:47:46.436Z,31.02
2023-04-21T04:50:31.580Z,30.95
2023-04-21T04:53:11.683Z,32.33
2023-04-21T04:55:45.409Z,33.28
2023-04-21T04:58:27.165Z,34.00
2023-04-21T05:01:18.031Z,32.63
2023-04-21T05:03:56.951Z,33.00
2023-04-21T05:06:36.543Z,34.30
2023-04-21T05:09:15.702Z,35.08
2023-04-21T05:11:51.190Z,33.85
2023-04-21T05:14:25.956Z,35.65
2023-04-21T05:17:05.543Z,37.50
2023-04-21T05:22:25.376Z,37.17
2023-04-21T05:24:57.138Z,38.05
2023-04-21T05:27:41.039Z,37.65
2023-04-21T05:30:17.779Z,37.08
2023-04-21T05:32:58.564Z,35.25
2023-04-21T05:35:43.794Z,36.22
2023-04-21T05:38:20.871Z,35.60
2023-04-21T05:40:59.384Z,32.08
2023-04-21T05:43:47.120Z,28.95
2023-04-21T05:46:20.793Z,26.73
2023-04-21T05:48:58.970Z,26.30
2023-04-21T05:51:32.745Z,27.73
2023-04-21T05:54:06.313Z,26.90
2023-04-21T05:56:42.834Z,26.67
2023-04-21T05:59:28.175Z,24.40
2023-04-21T06:02:09.249Z,20.48
2023-04-21T06:04:47.266Z,16.20
2023-04-21T06:07:19.532Z,20.73
2023-04-21T06:09:58.457Z,21.85
2023-04-21T06:12:42.224Z,18.52
2023-04-21T06:15:21.222Z,17.40
2023-04-21T06:18:05.463Z,17.13
2023-04-21T06:20:49.396Z,18.15
2023-04-21T06:23:27.123Z,19.10
2023-04-21T06:26:16.950Z,18.15
2023-04-21T06:28:54.484Z,18.02
2023-04-21T06:31:31.610Z,16.95
2023-04-21T06:34:11.039Z,19.40
2023-04-21T06:36:54.605Z,19.05
2023-04-21T06:39:27.279Z,15.68
2023-04-21T06:42:02.961Z,12.98
2023-04-21T06:44:39.710Z,12.68
2023-04-21T06:47:11.672Z,10.32
2023-04-21T06:49:45.463Z,9.52
2023-04-21T06:52:30.807Z,11.07
2023-04-21T06:55:05.090Z,9.82
2023-04-21T06:57:44.293Z,10.90
2023-04-21T07:00:31.063Z,9.77
2023-04-21T07:03:03.386Z,9.40
2023-04-21T07:05:48.257Z,10.32
2023-04-21T07:08:27.461Z,9.52
2023-04-21T07:11:10.021Z,10.45
2023-04-21T07:13:50.243Z,10.57
2023-04-21T07:16:24.822Z,9.50
2023-04-21T07:18:58.398Z,9.13
2023-04-21T07:21:37.798Z,9.75
2023-04-21T07:24:11.635Z,9.00
2023-04-21T07:26:50.636Z,9.48
2023-04-21T07:29:34.219Z,9.18
2023-04-21T07:32:18.281Z,9.63
2023-04-21T07:34:56.782Z,9.05
2023-04-21T07:37:30.474Z,8.90
2023-04-21T07:40:04.740Z,9.07
2023-04-21T07:42:44.578Z,8.77
2023-04-21T07:45:28.634Z,8.13
2023-04-21T07:48:02.843Z,8.60
2023-04-21T07:50:41.497Z,7.70
2023-04-21T07:53:17.796Z,8.02
2023-04-21T07:55:56.671Z,8.50
2023-04-21T07:58:33.456Z,7.72
2023-04-21T08:01:08.384Z,7.93
2023-04-21T08:03:51.738Z,6.65
2023-04-21T08:06:28.822Z,7.93
2023-04-21T08:09:12.067Z,7.88
2023-04-21T08:11:55.805Z,7.70
2023-04-21T08:14:32.993Z,7.15
2023-04-21T08:17:16.633Z,7.45
2023-04-21T08:19:57.387Z,7.15
2023-04-21T08:22:32.204Z,7.10
2023-04-21T08:25:10.056Z,7.43
2023-04-21T08:27:44.753Z,7.70
2023-04-21T08:30:24.649Z,7.25
2023-04-21T08:33:08.265Z,6.95
2023-04-21T08:35:59.315Z,7.15
2023-04-21T08:38:40.969Z,6.97
2023-04-21T08:41:21.622Z,5.75
2023-04-21T08:43:56.463Z,7.75
2023-04-21T08:46:33.874Z,7.40
2023-04-21T08:49:11.633Z,7.68
2023-04-21T08:51:47.046Z,5.82
2023-04-21T08:54:22.789Z,5.53
2023-04-21T08:57:11.941Z,6.53
2023-04-21T08:59:52.471Z,5.40
2023-04-21T09:02:29.956Z,5.68
2023-04-21T09:05:12.677Z,6.43
2023-04-21T09:07:46.848Z,6.97
2023-04-21T09:10:27.207Z,6.22
2023-04-21T09:13:12.747Z,6.22
2023-04-21T09:15:52.252Z,6.40
2023-04-21T09:18:38.556Z,6.05
2023-04-21T09:21:17.414Z,4.75
2023-04-21T09:23:52.384Z,5.03
2023-04-21T09:26:36.991Z,5.28
2023-04-21T09:29:18.220Z,5.45
2023-04-21T09:32:11.911Z,5.35
2023-04-21T09:34:50.266Z,4.55
2023-04-21T09:37:26.569Z,5.30
2023-04-21T09:40:05.366Z,4.63
2023-04-21T09:42:43.929Z,5.13
2023-04-21T09:45:32.818Z,5.63
2023-04-21T09:48:21.232Z,4.72
2023-04-21T09:51:25.520Z,4.68
2023-04-21T09:54:22.085Z,4.10
2023-04-21T09:57:07.442Z,5.15
2023-04-21T09:59:43.181Z,5.47
2023-04-21T10:02:20.252Z,5.25
2023-04-21T10:04:55.742Z,5.13
2023-04-21T10:07:27.663Z,4.82
2023-04-21T10:10:03.952Z,4.40
2023-04-21T10:12:37.473Z,4.70
2023-04-21T10:15:35.566Z,4.97
2023-04-21T10:18:36.003Z,5.15
2023-04-21T10:21:15.539Z,4.80
2023-04-21T10:23:53.341Z,5.15
2023-04-21T10:26:30.422Z,5.07
2023-04-21T10:29:13.294Z,4.63
2023-04-21T10:32:00.976Z,4.47
2023-04-21T10:34:49.341Z,3.88
2023-04-21T10:37:25.100Z,4.57
2023-04-21T10:40:02.407Z,4.35
2023-04-21T10:42:49.355Z,4.80
2023-04-21T10:45:29.448Z,4.82
2023-04-21T10:48:20.597Z,4.53
2023-04-21T10:50:57.774Z,4.60
2023-04-21T10:53:33.468Z,4.68
2023-04-21T10:56:08.916Z,4.40
2023-04-21T10:58:51.183Z,4.57
2023-04-21T11:01:29.175Z,4.88
2023-04-21T11:04:04.867Z,4.60
2023-04-21T11:06:41.410Z,5.43
2023-04-21T11:09:21.106Z,4.30
2023-04-21T11:12:08.669Z,5.20
2023-04-21T11:14:53.558Z,4.97
2023-04-21T11:17:36.260Z,5.15
2023-04-21T11:20:17.519Z,5.28
2023-04-21T11:22:55.799Z,3.90
2023-04-21T11:25:33.056Z,4.80
2023-04-21T11:28:06.850Z,4.63
2023-04-21T11:30:40.454Z,5.00
2023-04-21T11:33:14.640Z,4.57
2023-04-21T11:35:51.657Z,4.97
2023-04-21T11:38:32.559Z,4.15
2023-04-21T11:41:12.886Z,4.68
2023-04-21T11:43:50.761Z,4.65
2023-04-21T11:46:38.696Z,4.32
2023-04-21T11:49:16.617Z,3.70
2023-04-21T11:51:55.573Z,4.60
2023-04-21T11:54:39.136Z,4.60
2023-04-21T11:57:11.825Z,5.72
2023-04-21T11:59:50.630Z,4.20
2023-04-21T12:02:32.969Z,4.93
2023-04-21T12:05:18.816Z,4.93
2023-04-21T12:07:57.849Z,3.97
2023-04-21T12:10:36.156Z,4.25
2023-04-21T12:13:11.141Z,4.40
2023-04-21T12:15:50.256Z,4.07
2023-04-21T12:18:39.145Z,4.85
2023-04-21T12:24:06.879Z,5.00
2023-04-21T12:26:44.554Z,5.65
2023-04-21T12:29:20.290Z,4.35
2023-04-21T12:31:54.920Z,3.67
2023-04-21T12:34:32.176Z,4.03
2023-04-21T12:37:16.889Z,4.05
2023-04-21T12:39:51.352Z,4.70
2023-04-21T12:42:30.830Z,4.35
2023-04-21T12:45:15.686Z,4.53
2023-04-21T12:47:50.850Z,4.07
2023-04-21T12:50:45.051Z,4.32
2023-04-21T12:53:23.696Z,4.80
2023-04-21T12:56:04.856Z,4.25
2023-04-21T12:58:43.102Z,4.43
2023-04-21T13:01:20.336Z,4.20
2023-04-21T13:03:57.319Z,4.65
2023-04-21T13:06:35.392Z,4.45
2023-04-21T13:09:21.139Z,4.80
2023-04-21T13:11:57.359Z,4.97
2023-04-21T13:14:31.184Z,5.03
2023-04-21T13:17:14.599Z,4.07
2023-04-21T13:19:48.993Z,4.55
2023-04-21T13:22:32.073Z,5.40
2023-04-21T13:25:11.955Z,6.07
2023-04-21T13:27:53.744Z,5.38
2023-04-21T13:30:25.970Z,4.43
2023-04-21T13:33:01.198Z,5.07
2023-04-21T13:35:38.500Z,4.18
2023-04-21T13:38:14.498Z,5.55
2023-04-21T13:40:50.155Z,4.47
2023-04-21T13:43:23.863Z,4.60
2023-04-21T13:46:03.057Z,4.88
2023-04-21T13:48:48.960Z,4.80
2023-04-21T13:51:35.686Z,4.47
2023-04-21T13:54:15.451Z,4.65
2023-04-21T13:56:55.044Z,4.40
2023-04-21T13:59:28.218Z,4.45
2023-04-21T14:02:04.864Z,4.85
2023-04-21T14:04:38.114Z,4.75
2023-04-21T14:07:24.996Z,4.60
2023-04-21T14:10:08.355Z,3.70
2023-04-21T14:12:47.352Z,4.18
2023-04-21T14:15:29.459Z,4.00
2023-04-21T14:18:06.072Z,4.70
2023-04-21T14:20:40.645Z,5.82
2023-04-21T14:23:16.429Z,4.80
2023-04-21T14:25:56.249Z,4.63
2023-04-21T14:28:39.849Z,4.45
2023-04-21T14:31:22.288Z,4.53
2023-04-21T14:34:03.724Z,4.13
2023-04-21T14:36:44.385Z,4.43
2023-04-21T14:39:24.996Z,5.38
2023-04-21T14:42:08.619Z,3.80
2023-04-21T14:44:47.068Z,3.95
2023-04-21T14:47:20.677Z,4.22
2023-04-21T14:49:56.166Z,4.43
2023-04-21T14:52:34.677Z,6.13
2023-04-21T14:55:11.509Z,4.55
2023-04-21T14:57:49.052Z,5.30
2023-04-21T15:00:26.141Z,4.90
2023-04-21T15:03:01.978Z,4.35
2023-04-21T15:05:40.099Z,4.57
2023-04-21T15:08:26.215Z,4.95
2023-04-21T15:11:05.524Z,4.72
2023-04-21T15:13:52.441Z,4.03
2023-04-21T15:16:28.213Z,4.82
2023-04-21T15:19:03.256Z,4.80
2023-04-21T15:21:44.217Z,5.00
2023-04-21T15:24:25.230Z,4.78
2023-04-21T15:26:55.806Z,5.32
2023-04-21T15:29:34.241Z,5.82
2023-04-21T15:32:08.212Z,5.10
2023-04-21T15:34:42.176Z,5.25
2023-04-21T15:37:18.146Z,5.43
2023-04-21T15:40:08.118Z,5.63
2023-04-21T15:42:50.013Z,6.25
2023-04-21T15:45:35.692Z,5.90
2023-04-21T15:48:16.158Z,4.60
2023-04-21T15:51:02.182Z,5.05
2023-04-21T15:53:44.599Z,4.47
2023-04-21T15:56:30.377Z,5.25
2023-04-21T15:59:10.693Z,5.95
2023-04-21T16:01:52.254Z,4.53
2023-04-21T16:04:27.167Z,5.15
2023-04-21T16:07:10.493Z,4.75
2023-04-21T16:09:46.291Z,5.93
2023-04-21T16:12:32.775Z,5.13
2023-04-21T16:15:23.801Z,4.65
2023-04-21T16:18:07.387Z,5.30
2023-04-21T16:20:44.261Z,5.30
2023-04-21T16:23:29.901Z,4.82
2023-04-21T16:26:09.304Z,6.80
2023-04-21T16:28:48.146Z,6.00
2023-04-21T16:31:27.804Z,5.15
2023-04-21T16:34:07.010Z,4.93
2023-04-21T16:36:42.977Z,5.20
2023-04-21T16:39:30.279Z,5.32
2023-04-21T16:42:11.529Z,5.57
2023-04-21T16:44:49.011Z,6.63
2023-04-21T16:47:28.889Z,9.45
2023-04-21T16:50:08.719Z,8.02
2023-04-21T16:52:48.983Z,8.45
2023-04-21T16:55:32.809Z,6.75
2023-04-21T16:58:12.343Z,5.82
2023-04-21T17:00:48.430Z,5.80
2023-04-21T17:03:23.958Z,6.93
2023-04-21T17:06:06.504Z,7.13
2023-04-21T17:08:49.775Z,8.82
2023-04-21T17:11:26.495Z,6.40
2023-04-21T17:14:16.156Z,8.88
2023-04-21T17:16:53.295Z,9.90
2023-04-21T17:19:30.302Z,8.73
2023-04-21T17:22:12.968Z,7.32
2023-04-21T17:24:53.729Z,6.60
2023-04-21T17:27:24.794Z,6.78
2023-04-21T17:29:58.724Z,6.40
2023-04-21T17:32:34.576Z,8.82
2023-04-21T17:35:08.676Z,10.05
2023-04-21T17:37:46.548Z,11.60
2023-04-21T17:40:23.489Z,12.55
2023-04-21T17:43:04.977Z,13.73
2023-04-21T17:45:41.788Z,15.32
2023-04-21T17:48:19.058Z,15.15
2023-04-21T17:50:53.060Z,14.73
2023-04-21T17:53:35.549Z,14.93
2023-04-21T17:56:16.614Z,15.98
2023-04-21T17:59:00.513Z,12.48
2023-04-21T18:01:36.826Z,13.02
2023-04-21T18:04:11.777Z,13.95
2023-04-21T18:06:46.261Z,15.18
2023-04-21T18:09:27.782Z,13.43
2023-04-21T18:12:13.501Z,13.32
2023-04-21T18:14:55.728Z,13.35
2023-04-21T18:17:29.283Z,14.20
2023-04-21T18:20:13.194Z,12.98
2023-04-21T18:22:51.916Z,11.65
2023-04-21T18:25:40.600Z,11.43
2023-04-21T18:28:16.916Z,10.88
2023-04-21T18:31:00.698Z,10.80
2023-04-21T18:33:35.557Z,12.38
2023-04-21T18:36:15.342Z,13.55
2023-04-21T18:38:50.014Z,14.05
2023-04-21T18:41:27.035Z,16.45
2023-04-21T18:44:02.425Z,16.75
2023-04-21T18:46:55.848Z,19.25
2023-04-21T18:49:31.666Z,17.98
2023-04-21T18:52:10.413Z,22.10
2023-04-21T18:54:47.098Z,22.98
2023-04-21T18:57:27.742Z,30.75
2023-04-21T19:00:14.076Z,32.83
2023-04-21T19:02:50.190Z,36.67
2023-04-21T19:05:27.803Z,37.83
2023-04-21T19:10:43.114Z,28.48
2023-04-21T19:13:21.025Z,22.55
2023-04-21T19:16:07.110Z,23.00
2023-04-21T19:18:45.239Z,20.50
2023-04-21T19:21:31.432Z,21.55
2023-04-21T19:24:06.768Z,19.23
2023-04-21T19:26:56.672Z,19.58
2023-04-21T19:29:43.395Z,20.05
2023-04-21T19:32:20.004Z,19.02
2023-04-21T19:34:53.120Z,19.25
2023-04-21T19:37:32.942Z,19.15
2023-04-21T19:40:12.438Z,20.65
2023-04-21T19:42:48.449Z,19.95
2023-04-21T19:45:26.218Z,19.50
2023-04-21T19:48:11.350Z,19.17
2023-04-21T19:50:51.880Z,21.00
2023-04-21T19:53:24.800Z,21.40
2023-04-21T19:55:59.503Z,19.80
2023-04-21T19:58:40.205Z,27.33
2023-04-21T20:01:19.117Z,20.13
2023-04-21T20:04:02.527Z,19.23
2023-04-21T20:06:36.597Z,19.33
2023-04-21T20:09:13.937Z,17.42
2023-04-21T20:11:48.128Z,17.25
2023-04-21T20:14:25.242Z,14.73
2023-04-21T20:17:08.809Z,14.75
2023-04-21T20:19:51.570Z,15.43
2023-04-21T20:22:32.622Z,21.08
2023-04-21T20:25:11.682Z,15.35
2023-04-21T20:27:47.175Z,14.85
2023-04-21T20:30:35.479Z,17.10
2023-04-21T20:33:17.360Z,27.90
2023-04-21T20:35:55.263Z,21.67
2023-04-21T20:38:31.593Z,19.13
2023-04-21T20:41:07.420Z,16.40
2023-04-21T20:43:41.046Z,17.58
2023-04-21T20:46:11.677Z,18.73
2023-04-21T20:48:51.941Z,19.00
2023-04-21T20:51:35.400Z,17.98
2023-04-21T20:54:13.025Z,16.40
2023-04-21T20:56:51.214Z,16.92
2023-04-21T20:59:26.701Z,17.67
2023-04-21T21:01:58.425Z,18.90
2023-04-21T21:04:37.947Z,17.63
2023-04-21T21:07:21.304Z,17.10
2023-04-21T21:10:02.501Z,17.05
2023-04-21T21:12:43.453Z,16.15
2023-04-21T21:15:35.728Z,16.17
2023-04-21T21:18:15.395Z,16.63
2023-04-21T21:20:53.569Z,16.98
2023-04-21T21:23:30.353Z,15.63
2023-04-21T21:26:14.263Z,17.83
2023-04-21T21:28:47.557Z,21.77
2023-04-21T21:31:26.026Z,20.23
2023-04-21T21:34:01.800Z,16.15
2023-04-21T21:36:53.548Z,16.98
2023-04-21T21:39:28.468Z,19.48
2023-04-21T21:42:06.974Z,15.88
2023-04-21T21:44:40.352Z,16.52
2023-04-21T21:47:22.771Z,14.88
2023-04-21T21:50:02.229Z,14.15
2023-04-21T21:52:51.717Z,14.15
2023-04-21T21:55:34.261Z,13.73
2023-04-21T21:58:19.313Z,15.93
2023-04-21T22:00:56.343Z,16.75
2023-04-21T22:03:31.399Z,13.55
2023-04-21T22:06:13.195Z,14.52
2023-04-21T22:08:53.364Z,14.80
2023-04-21T22:11:27.583Z,14.75
2023-04-21T22:14:14.513Z,15.00
2023-04-21T22:17:06.369Z,15.43
2023-04-21T22:19:46.348Z,15.40
2023-04-21T22:22:19.130Z,14.98
2023-04-21T22:24:57.719Z,15.27
2023-04-21T22:27:31.536Z,13.85
2023-04-21T22:30:06.092Z,14.57
2023-04-21T22:32:38.873Z,14.32
2023-04-21T22:35:14.661Z,14.02
2023-04-21T22:37:47.861Z,14.80
2023-04-21T22:40:23.431Z,14.45
2023-04-21T22:43:04.679Z,14.38
2023-04-21T22:48:17.309Z,13.45
2023-04-21T22:50:57.243Z,14.55
2023-04-21T22:53:35.636Z,15.20
2023-04-21T22:56:21.934Z,15.70
2023-04-21T22:58:55.468Z,14.32
2023-04-21T23:01:30.063Z,14.65
2023-04-21T23:04:03.798Z,14.70
2023-04-21T23:06:36.821Z,14.82
2023-04-21T23:09:19.361Z,16.38
2023-04-21T23:11:59.275Z,16.77
2023-04-21T23:14:37.121Z,17.45
2023-04-21T23:17:09.282Z,16.33
2023-04-21T23:19:49.344Z,16.67
2023-04-21T23:22:26.211Z,16.85
2023-04-21T23:25:04.559Z,16.17
2023-04-21T23:27:41.828Z,16.85
2023-04-21T23:30:31.047Z,20.17
2023-04-21T23:33:10.036Z,19.20
2023-04-21T23:35:50.410Z,17.80
2023-04-21T23:38:26.815Z,17.35
2023-04-21T23:41:09.174Z,17.65
2023-04-21T23:43:46.069Z,17.55
2023-04-21T23:46:42.264Z,17.13
2023-04-21T23:49:17.486Z,17.42
2023-04-21T23:51:51.152Z,16.55
2023-04-21T23:54:27.175Z,16.02
2023-04-21T23:57:10.966Z,16.92
2023-04-21T23:59:51.756Z,17.88
